Time;durP1;ratioP1;P1;durP2;ratioP2;P2;SDS_P1;SDS_P2;PMS_P1;PMS_P2;Temp;Humidity;BMP_temperature;BMP_pressure;BME280_temperature;BME280_humidity;BME280_pressure;Samples;Min_cycle;Max_cycle;Signal;HPM_P1;HPM_P2
2022/03/19 00:00:58;;;;;;;45.83;20.98;;;8.00;99.90;;;;;;5071741;28;20491;-80
2022/03/19 00:03:23;;;;;;;48.00;20.98;;;7.90;99.90;;;;;;5058758;28;20016;-80
2022/03/19 00:05:49;;;;;;;49.42;20.35;;;7.90;99.90;;;;;;5068511;28;20028;-80
2022/03/19 00:08:16;;;;;;;48.78;20.75;;;8.00;99.90;;;;;;5066192;28;20085;-80
2022/03/19 00:10:42;;;;;;;51.33;21.30;;;7.90;99.90;;;;;;5061540;28;20538;-80
2022/03/19 00:13:10;;;;;;;46.08;20.48;;;7.90;99.90;;;;;;5090044;28;20020;-79
2022/03/19 00:15:36;;;;;;;48.10;20.63;;;7.90;99.90;;;;;;5060362;28;20479;-79
2022/03/19 00:18:03;;;;;;;45.20;19.50;;;7.90;99.90;;;;;;5066932;28;20056;-81
2022/03/19 00:20:29;;;;;;;43.38;20.20;;;7.90;99.90;;;;;;5085928;28;20035;-80
2022/03/19 00:22:55;;;;;;;43.60;19.80;;;7.90;99.90;;;;;;5059222;28;20021;-80
2022/03/19 00:25:20;;;;;;;42.15;19.83;;;7.90;99.90;;;;;;5064270;28;20023;-79
2022/03/19 00:27:46;;;;;;;43.53;19.30;;;7.90;99.90;;;;;;5086629;28;20095;-80
2022/03/19 00:30:12;;;;;;;43.63;20.42;;;7.90;99.90;;;;;;5065031;28;20030;-80
2022/03/19 00:32:37;;;;;;;43.50;19.73;;;7.90;99.90;;;;;;5061578;28;20354;-81
2022/03/19 00:35:04;;;;;;;43.80;20.45;;;7.80;99.90;;;;;;5089883;28;20050;-80
2022/03/19 00:37:32;;;;;;;44.95;19.83;;;7.80;99.90;;;;;;5073241;28;20039;-79
2022/03/19 00:39:57;;;;;;;44.53;20.17;;;7.80;99.90;;;;;;5056037;28;20388;-80
2022/03/19 00:42:24;;;;;;;48.60;19.45;;;7.80;99.90;;;;;;5055767;28;20128;-79
2022/03/19 00:44:50;;;;;;;39.90;18.25;;;7.80;99.90;;;;;;5055276;28;20028;-79
2022/03/19 00:47:15;;;;;;;42.17;19.17;;;7.80;99.90;;;;;;5073522;28;20025;-79
2022/03/19 00:49:41;;;;;;;46.72;20.27;;;7.80;99.90;;;;;;5072796;28;20020;-80
2022/03/19 00:52:06;;;;;;;42.30;19.52;;;7.70;99.90;;;;;;5055747;28;20024;-79
2022/03/19 00:54:32;;;;;;;42.90;19.88;;;7.70;99.90;;;;;;5055224;28;20024;-82
2022/03/19 00:56:58;;;;;;;44.03;18.85;;;7.70;99.90;;;;;;5055488;28;20020;-79
2022/03/19 00:59:23;;;;;;;40.38;18.77;;;7.80;99.90;;;;;;5059092;28;20039;-78
2022/03/19 01:01:49;;;;;;;43.85;19.25;;;7.70;99.90;;;;;;5059005;28;20040;-78
2022/03/19 01:04:15;;;;;;;39.95;18.73;;;7.70;99.90;;;;;;5059084;28;20025;-78
2022/03/19 01:06:40;;;;;;;43.22;19.30;;;7.70;99.90;;;;;;5058794;28;20013;-78
2022/03/19 01:09:06;;;;;;;41.63;18.80;;;7.70;99.90;;;;;;5059448;28;20031;-80
2022/03/19 01:11:31;;;;;;;45.75;18.55;;;7.70;99.90;;;;;;5059719;28;20116;-80
2022/03/19 01:13:57;;;;;;;40.95;17.67;;;7.70;99.90;;;;;;5076557;28;20030;-80
2022/03/19 01:16:26;;;;;;;42.90;18.65;;;7.70;99.90;;;;;;5077255;28;20017;-79
2022/03/19 01:18:52;;;;;;;39.65;18.55;;;7.70;99.90;;;;;;5076757;28;20088;-80
2022/03/19 01:21:18;;;;;;;42.05;17.48;;;7.70;99.90;;;;;;5059475;28;20021;-80
2022/03/19 01:23:44;;;;;;;37.67;18.00;;;7.60;99.90;;;;;;5058941;28;20020;-80
2022/03/19 01:26:09;;;;;;;36.63;17.95;;;7.60;99.90;;;;;;5059542;28;20031;-79
2022/03/19 01:28:35;;;;;;;38.53;18.05;;;7.60;99.90;;;;;;5058720;28;20031;-80
2022/03/19 01:31:02;;;;;;;39.25;18.35;;;7.60;99.90;;;;;;5059243;28;20457;-79
2022/03/19 01:33:28;;;;;;;46.05;18.95;;;7.60;99.90;;;;;;5076924;28;20109;-80
2022/03/19 01:35:53;;;;;;;38.33;17.60;;;7.50;99.90;;;;;;5058964;28;20042;-80
2022/03/19 01:38:19;;;;;;;40.28;18.23;;;7.50;99.90;;;;;;5076692;28;20130;-79
2022/03/19 01:40:45;;;;;;;38.92;18.50;;;7.50;99.90;;;;;;5058773;28;20063;-80
2022/03/19 01:43:11;;;;;;;40.90;17.30;;;7.50;99.90;;;;;;5059050;28;20063;-80
2022/03/19 01:45:37;;;;;;;39.88;18.05;;;7.50;99.90;;;;;;5076174;28;20029;-79
2022/03/19 01:48:03;;;;;;;37.42;18.23;;;7.50;99.90;;;;;;5076391;28;20024;-80
2022/03/19 01:50:29;;;;;;;35.40;16.95;;;7.50;99.90;;;;;;5058899;28;20024;-80
2022/03/19 01:52:56;;;;;;;37.75;16.73;;;7.50;99.90;;;;;;5058402;28;20016;-80
2022/03/19 01:55:24;;;;;;;38.63;18.15;;;7.50;99.90;;;;;;5058633;28;20021;-80
2022/03/19 01:57:50;;;;;;;40.15;17.42;;;7.50;99.90;;;;;;5058143;28;20028;-80
2022/03/19 02:00:19;;;;;;;38.23;17.47;;;7.50;99.90;;;;;;5076049;28;20465;-80
2022/03/19 02:02:47;;;;;;;38.72;16.92;;;7.50;99.90;;;;;;5058378;28;20032;-80
2022/03/19 02:05:14;;;;;;;36.13;17.02;;;7.40;99.90;;;;;;5076081;28;20510;-80
2022/03/19 02:07:44;;;;;;;41.17;18.65;;;7.40;99.90;;;;;;5057877;28;20036;-80
2022/03/19 02:10:11;;;;;;;37.07;17.30;;;7.40;99.90;;;;;;5056794;28;20157;-80
2022/03/19 02:12:37;;;;;;;35.45;17.02;;;7.40;99.90;;;;;;5075530;28;20020;-82
2022/03/19 02:15:05;;;;;;;38.20;17.02;;;7.40;99.90;;;;;;5058108;28;20031;-79
2022/03/19 02:17:30;;;;;;;40.27;17.77;;;7.40;99.90;;;;;;5058022;28;20028;-79
2022/03/19 02:19:57;;;;;;;35.63;16.83;;;7.40;99.90;;;;;;5057489;28;20543;-78
2022/03/19 02:22:26;;;;;;;36.60;17.17;;;7.40;99.90;;;;;;5075774;28;20021;-77
2022/03/19 02:27:36;;;;;;;38.97;16.85;;;7.30;99.90;;;;;;5075823;28;20050;-79
2022/03/19 02:30:04;;;;;;;37.63;17.00;;;7.30;99.90;;;;;;5057294;28;20025;-78
2022/03/19 02:32:30;;;;;;;37.37;17.43;;;7.30;99.90;;;;;;5075429;28;20032;-78
2022/03/19 02:34:56;;;;;;;42.75;18.10;;;7.30;99.90;;;;;;5075181;28;20103;-78
2022/03/19 02:37:22;;;;;;;40.25;17.38;;;7.30;99.90;;;;;;5057865;28;20120;-78
2022/03/19 02:39:48;;;;;;;36.25;17.58;;;7.30;99.90;;;;;;5057161;28;20024;-78
2022/03/19 02:42:17;;;;;;;39.47;17.23;;;7.30;99.90;;;;;;5057573;28;20469;-78
2022/03/19 02:44:43;;;;;;;34.35;17.27;;;7.30;99.90;;;;;;5057020;28;20070;-78
2022/03/19 02:47:09;;;;;;;42.83;17.58;;;7.20;99.90;;;;;;5057850;28;20480;-77
2022/03/19 02:49:35;;;;;;;39.17;18.03;;;7.20;99.90;;;;;;5057421;28;20025;-77
2022/03/19 02:52:01;;;;;;;41.33;17.67;;;7.20;99.90;;;;;;5074730;28;20027;-77
2022/03/19 02:54:29;;;;;;;39.63;18.07;;;7.20;99.90;;;;;;5074905;28;20032;-78
2022/03/19 02:56:55;;;;;;;42.88;17.65;;;7.20;99.90;;;;;;5074557;28;20025;-78
2022/03/19 02:59:22;;;;;;;39.65;17.40;;;7.10;99.90;;;;;;5057095;28;20461;-78
2022/03/19 03:01:50;;;;;;;35.50;17.23;;;7.20;99.90;;;;;;5056639;28;20037;-78
2022/03/19 03:04:15;;;;;;;38.87;17.43;;;7.20;99.90;;;;;;5074893;28;20024;-78
2022/03/19 03:06:44;;;;;;;38.47;18.25;;;7.20;99.90;;;;;;5056360;28;20052;-79
2022/03/19 03:09:11;;;;;;;35.15;16.38;;;7.10;99.90;;;;;;5057068;28;20400;-77
2022/03/19 03:11:38;;;;;;;38.10;17.13;;;7.10;99.90;;;;;;5056614;28;20042;-78
2022/03/19 03:14:05;;;;;;;43.33;17.93;;;7.10;99.90;;;;;;5074014;28;20085;-78
2022/03/19 03:16:31;;;;;;;44.27;17.27;;;7.10;99.90;;;;;;5056709;28;20032;-79
2022/03/19 03:19:05;;;;;;;39.07;17.57;;;7.10;99.90;;;;;;5055820;28;20366;-79
2022/03/19 03:21:35;;;;;;;40.13;17.43;;;7.10;99.90;;;;;;5056416;28;20035;-79
2022/03/19 03:24:01;;;;;;;38.17;16.83;;;7.10;99.90;;;;;;5056211;28;20786;-77
2022/03/19 03:26:27;;;;;;;37.40;18.10;;;7.10;99.90;;;;;;5074450;28;20025;-79
2022/03/19 03:28:53;;;;;;;34.67;16.93;;;7.10;99.90;;;;;;5055937;28;20111;-78
2022/03/19 03:31:19;;;;;;;36.20;17.53;;;7.10;99.90;;;;;;5074381;28;20063;-78
2022/03/19 03:33:45;;;;;;;43.43;17.90;;;7.10;99.90;;;;;;5056484;28;20020;-79
2022/03/19 03:36:11;;;;;;;36.03;16.67;;;7.00;99.90;;;;;;5056625;28;20024;-79
2022/03/19 03:38:37;;;;;;;38.43;17.23;;;7.00;99.90;;;;;;5074212;28;20047;-79
2022/03/19 03:41:03;;;;;;;41.13;17.90;;;7.00;99.90;;;;;;5055745;28;20032;-79
2022/03/19 03:43:29;;;;;;;39.07;18.23;;;7.00;99.90;;;;;;5074240;28;20047;-79
2022/03/19 03:45:55;;;;;;;38.33;17.43;;;7.00;99.90;;;;;;5055953;28;20021;-79
2022/03/19 03:48:20;;;;;;;40.83;17.73;;;7.00;99.90;;;;;;5056700;28;20427;-79
2022/03/19 03:50:49;;;;;;;42.60;16.77;;;7.00;99.90;;;;;;5055657;28;20350;-79
2022/03/19 03:53:15;;;;;;;36.73;16.60;;;7.00;99.90;;;;;;5073960;28;20039;-79
2022/03/19 03:55:40;;;;;;;40.00;17.77;;;6.90;99.90;;;;;;5056271;28;20021;-79
2022/03/19 03:58:08;;;;;;;37.37;17.20;;;6.90;99.90;;;;;;5055963;28;20036;-79
2022/03/19 04:00:34;;;;;;;36.70;17.00;;;6.90;99.90;;;;;;5056306;28;20511;-79
2022/03/19 04:03:00;;;;;;;40.20;17.60;;;6.90;99.90;;;;;;5073213;28;20028;-79
2022/03/19 04:05:26;;;;;;;41.07;16.93;;;6.90;99.90;;;;;;5056024;28;20024;-79
2022/03/19 04:07:51;;;;;;;40.03;17.07;;;6.90;99.90;;;;;;5055747;28;20559;-79
2022/03/19 04:10:18;;;;;;;36.00;15.83;;;6.90;99.90;;;;;;5074204;28;20020;-79
2022/03/19 04:12:44;;;;;;;37.03;15.87;;;6.90;99.90;;;;;;5055910;28;20446;-80
2022/03/19 04:15:10;;;;;;;38.90;18.00;;;6.90;99.90;;;;;;5056375;28;20241;-80
2022/03/19 04:17:36;;;;;;;34.97;16.03;;;6.90;99.90;;;;;;5073357;28;20469;-80
2022/03/19 04:20:05;;;;;;;41.30;17.97;;;6.90;99.90;;;;;;5055415;28;20075;-81
2022/03/19 04:22:39;;;;;;;42.37;17.90;;;6.90;99.90;;;;;;5073669;28;20050;-78
2022/03/19 04:25:11;;;;;;;37.00;16.33;;;6.80;99.90;;;;;;5073156;28;20383;-80
2022/03/19 04:27:38;;;;;;;36.87;17.20;;;6.80;99.90;;;;;;5055992;28;20480;-81
2022/03/19 04:30:04;;;;;;;39.27;16.97;;;6.80;99.90;;;;;;5072787;28;20017;-80
2022/03/19 04:32:30;;;;;;;42.07;17.10;;;6.80;99.90;;;;;;5072923;28;20035;-80
2022/03/19 04:34:56;;;;;;;40.70;17.03;;;6.80;99.90;;;;;;5055303;28;20024;-81
2022/03/19 04:37:21;;;;;;;41.57;17.47;;;6.70;99.90;;;;;;5073626;28;20461;-80
2022/03/19 04:39:47;;;;;;;34.57;15.80;;;6.80;99.90;;;;;;5055419;28;20056;-79
2022/03/19 04:42:12;;;;;;;34.23;15.87;;;6.70;99.90;;;;;;5055299;28;20440;-79
2022/03/19 04:44:38;;;;;;;35.60;16.33;;;6.80;99.90;;;;;;5055820;28;20017;-79
2022/03/19 04:47:04;;;;;;;35.03;16.30;;;6.80;99.90;;;;;;5072618;28;20464;-79
2022/03/19 04:49:30;;;;;;;38.37;16.50;;;6.80;99.90;;;;;;5055248;28;20161;-79
2022/03/19 04:51:56;;;;;;;35.80;16.33;;;6.80;99.90;;;;;;5072862;28;20028;-79
2022/03/19 04:54:22;;;;;;;44.03;17.13;;;6.80;99.90;;;;;;5073156;28;20021;-79
2022/03/19 04:56:47;;;;;;;41.77;16.90;;;6.70;99.90;;;;;;5055069;28;20146;-80
2022/03/19 04:59:15;;;;;;;40.87;17.47;;;6.70;99.90;;;;;;5072976;28;20070;-79
2022/03/19 05:01:41;;;;;;;34.40;15.90;;;6.70;99.90;;;;;;5055647;28;20025;-79
2022/03/19 05:04:07;;;;;;;37.43;16.30;;;6.70;99.90;;;;;;5055035;28;20480;-79
2022/03/19 05:06:33;;;;;;;39.87;16.93;;;6.70;99.90;;;;;;5055353;28;20027;-79
2022/03/19 05:11:43;;;;;;;35.10;15.57;;;6.70;99.90;;;;;;5072873;28;20474;-78
2022/03/19 05:14:09;;;;;;;37.40;17.13;;;6.70;99.90;;;;;;5071995;28;20017;-79
2022/03/19 05:16:36;;;;;;;38.43;16.97;;;6.60;99.90;;;;;;5055297;28;20092;-79
2022/03/19 05:19:02;;;;;;;40.97;17.20;;;6.70;99.90;;;;;;5072037;28;20051;-79
2022/03/19 05:21:28;;;;;;;40.50;16.47;;;6.70;99.90;;;;;;5055312;28;20059;-79
2022/03/19 05:23:55;;;;;;;37.97;16.47;;;6.60;99.90;;;;;;5072550;28;20024;-80
2022/03/19 05:26:21;;;;;;;41.17;17.30;;;6.60;99.90;;;;;;5073053;28;20029;-79
2022/03/19 05:28:47;;;;;;;39.53;17.33;;;6.70;99.90;;;;;;5073022;28;20020;-79
2022/03/19 05:31:12;;;;;;;35.97;16.47;;;6.70;99.90;;;;;;5068885;28;20033;-80
2022/03/19 05:36:24;;;;;;;43.17;16.93;;;6.70;99.90;;;;;;5084745;28;20024;-80
2022/03/19 05:38:50;;;;;;;41.07;17.63;;;6.70;99.90;;;;;;5069354;28;20121;-80
2022/03/19 05:41:16;;;;;;;38.50;16.93;;;6.70;99.90;;;;;;5061532;28;20025;-80
2022/03/19 05:43:43;;;;;;;41.03;16.80;;;6.70;99.90;;;;;;5066201;28;20052;-80
2022/03/19 05:46:09;;;;;;;38.83;15.90;;;6.70;99.90;;;;;;5057954;28;20092;-80
2022/03/19 05:48:34;;;;;;;36.07;15.97;;;6.70;99.90;;;;;;5070891;28;20031;-79
2022/03/19 05:51:01;;;;;;;39.57;16.97;;;6.70;99.90;;;;;;5054954;28;20520;-79
2022/03/19 05:53:27;;;;;;;37.37;16.53;;;6.70;99.90;;;;;;5066984;28;20522;-80
2022/03/19 05:55:53;;;;;;;38.37;17.33;;;6.70;99.90;;;;;;5077369;28;20050;-79
2022/03/19 05:58:19;;;;;;;37.37;16.10;;;6.70;99.90;;;;;;5089783;28;20035;-80
2022/03/19 06:00:45;;;;;;;38.73;17.60;;;6.70;99.90;;;;;;5059022;28;20032;-79
2022/03/19 06:03:10;;;;;;;38.53;17.13;;;6.70;99.90;;;;;;5082535;28;20035;-80
2022/03/19 06:05:36;;;;;;;40.27;18.17;;;6.70;99.90;;;;;;5062450;28;20060;-80
2022/03/19 06:08:04;;;;;;;41.00;17.43;;;6.70;99.90;;;;;;5089295;28;20070;-80
2022/03/19 06:10:29;;;;;;;39.27;17.43;;;6.70;99.90;;;;;;5058882;28;20016;-78
2022/03/19 06:12:55;;;;;;;41.10;17.33;;;6.70;99.90;;;;;;5066571;28;20093;-79
2022/03/19 06:15:21;;;;;;;39.87;17.47;;;6.60;99.90;;;;;;5066057;28;20447;-80
2022/03/19 06:17:46;;;;;;;42.13;16.80;;;6.60;99.90;;;;;;5078196;28;20031;-79
2022/03/19 06:20:12;;;;;;;40.20;15.87;;;6.70;99.90;;;;;;5088907;28;20020;-79
2022/03/19 06:22:41;;;;;;;36.37;16.67;;;6.70;99.90;;;;;;5060038;28;20028;-79
2022/03/19 06:25:07;;;;;;;37.40;16.30;;;6.60;99.90;;;;;;5064849;28;20020;-80
2022/03/19 06:27:33;;;;;;;39.87;16.93;;;6.70;99.90;;;;;;5072444;28;20028;-79
2022/03/19 06:29:58;;;;;;;39.47;17.27;;;6.70;99.90;;;;;;5070647;28;20491;-80
2022/03/19 06:32:24;;;;;;;43.00;17.27;;;6.70;99.90;;;;;;5058053;28;20510;-80
2022/03/19 06:34:50;;;;;;;39.47;16.27;;;6.70;99.90;;;;;;5085500;28;20035;-80
2022/03/19 06:37:21;;;;;;;37.73;17.43;;;6.70;99.90;;;;;;5082354;28;20102;-80
2022/03/19 06:39:55;;;;;;;35.85;15.95;;;6.70;99.90;;;;;;5060535;28;20063;-80
2022/03/19 06:42:21;;;;;;;43.10;18.00;;;6.70;99.90;;;;;;5060687;28;20488;-80
2022/03/19 06:44:47;;;;;;;39.07;17.37;;;6.70;99.90;;;;;;5086338;28;20025;-80
2022/03/19 06:47:13;;;;;;;38.90;17.60;;;6.80;99.90;;;;;;5064596;28;20119;-81
2022/03/19 06:49:39;;;;;;;36.57;16.43;;;6.80;99.90;;;;;;5059292;28;20111;-80
2022/03/19 06:52:05;;;;;;;42.30;17.17;;;6.90;99.90;;;;;;5071133;28;20049;-80
2022/03/19 06:54:31;;;;;;;39.07;16.67;;;6.90;99.90;;;;;;5058098;28;20028;-80
2022/03/19 06:56:56;;;;;;;37.23;17.43;;;6.90;99.90;;;;;;5065342;28;20079;-81
2022/03/19 06:59:22;;;;;;;34.53;16.63;;;6.90;99.90;;;;;;5065448;28;20032;-81
2022/03/19 07:01:48;;;;;;;37.43;17.60;;;7.00;99.90;;;;;;5059389;28;20119;-81
2022/03/19 07:04:13;;;;;;;36.10;17.23;;;7.00;99.90;;;;;;5070102;28;20408;-80
2022/03/19 07:06:39;;;;;;;37.80;18.00;;;7.00;99.90;;;;;;5059434;28;20468;-80
2022/03/19 07:09:05;;;;;;;43.47;17.77;;;7.10;99.90;;;;;;5065162;28;20115;-80
2022/03/19 07:11:31;;;;;;;37.80;17.20;;;7.10;99.90;;;;;;5077378;28;20028;-80
2022/03/19 07:13:57;;;;;;;38.67;16.93;;;7.20;99.90;;;;;;5073660;28;20016;-80
2022/03/19 07:16:23;;;;;;;38.07;16.50;;;7.20;99.90;;;;;;5057016;28;20511;-80
2022/03/19 07:18:49;;;;;;;39.55;16.85;;;7.30;99.90;;;;;;5057087;28;20081;-81
2022/03/19 07:21:15;;;;;;;37.03;16.37;;;7.30;99.90;;;;;;5056436;28;20062;-81
2022/03/19 07:23:42;;;;;;;37.93;16.20;;;7.30;99.90;;;;;;5074776;28;20046;-79
2022/03/19 07:26:08;;;;;;;32.43;15.70;;;7.40;99.90;;;;;;5074146;28;20028;-80
2022/03/19 07:28:34;;;;;;;39.47;16.17;;;7.40;99.90;;;;;;5057148;28;20469;-79
2022/03/19 07:31:00;;;;;;;40.57;16.93;;;7.50;99.90;;;;;;5074005;28;20589;-79
2022/03/19 07:33:27;;;;;;;34.57;15.53;;;7.50;99.90;;;;;;5056644;28;20365;-79
2022/03/19 07:35:53;;;;;;;33.77;15.20;;;7.50;99.90;;;;;;5056731;28;20020;-79
2022/03/19 07:38:18;;;;;;;36.80;15.18;;;7.60;99.90;;;;;;5055842;28;20074;-78
2022/03/19 07:43:30;;;;;;;35.53;15.63;;;7.60;99.90;;;;;;5074390;28;20496;-79
2022/03/19 07:45:56;;;;;;;32.95;14.77;;;7.70;99.90;;;;;;5056155;28;20112;-83
2022/03/19 07:48:21;;;;;;;33.10;14.23;;;7.80;99.90;;;;;;5056564;28;20143;-79
2022/03/19 07:50:47;;;;;;;31.35;14.13;;;7.80;99.90;;;;;;5056163;28;20070;-78
2022/03/19 07:53:13;;;;;;;28.60;15.05;;;7.80;99.90;;;;;;5055199;28;20025;-79
2022/03/19 07:55:38;;;;;;;30.58;13.73;;;7.90;99.90;;;;;;5056156;28;20029;-77
2022/03/19 07:58:04;;;;;;;31.98;14.07;;;7.90;99.90;;;;;;5055279;28;20039;-78
2022/03/19 08:00:30;;;;;;;29.30;13.85;;;7.90;99.90;;;;;;5055681;28;20397;-77
2022/03/19 08:02:56;;;;;;;30.23;13.95;;;8.00;99.90;;;;;;5055516;28;20111;-82
2022/03/19 08:05:22;;;;;;;29.88;13.45;;;8.00;99.90;;;;;;5055489;28;20025;-78
2022/03/19 08:07:47;;;;;;;31.30;13.85;;;8.10;99.90;;;;;;5055936;28;20106;-78
2022/03/19 08:10:13;;;;;;;33.45;14.25;;;8.10;99.90;;;;;;5038783;28;20123;-78
2022/03/19 08:12:41;;;;;;;31.52;13.38;;;8.10;99.90;;;;;;5073858;28;20075;-78
2022/03/19 08:15:08;;;;;;;32.00;13.77;;;8.10;99.90;;;;;;5055115;28;20024;-78
2022/03/19 08:17:37;;;;;;;27.42;13.85;;;8.20;99.90;;;;;;5073639;28;20024;-78
2022/03/19 08:20:06;;;;;;;31.58;13.65;;;8.20;99.90;;;;;;5051868;28;20505;-79
2022/03/19 08:22:32;;;;;;;30.05;13.68;;;8.30;99.90;;;;;;5052051;28;20124;-79
2022/03/19 08:24:59;;;;;;;26.60;13.63;;;8.30;99.90;;;;;;5051824;28;20021;-80
2022/03/19 08:27:25;;;;;;;30.63;14.05;;;8.40;99.90;;;;;;5052117;28;20092;-78
2022/03/19 08:29:52;;;;;;;28.30;14.40;;;8.40;99.90;;;;;;5052162;28;20064;-78
2022/03/19 08:32:17;;;;;;;31.83;14.40;;;8.50;99.90;;;;;;5051678;28;20029;-79
2022/03/19 08:34:44;;;;;;;34.58;14.35;;;8.50;99.80;;;;;;5043970;28;20021;-80
2022/03/19 08:37:10;;;;;;;33.20;14.77;;;8.50;99.40;;;;;;5051774;28;20102;-79
2022/03/19 08:42:22;;;;;;;32.42;14.88;;;8.60;99.70;;;;;;5048562;28;20032;-81
2022/03/19 08:44:48;;;;;;;31.15;15.02;;;8.80;99.80;;;;;;5041317;28;20041;-79
2022/03/19 08:47:13;;;;;;;37.95;15.10;;;8.80;99.20;;;;;;5039983;28;20025;-81
2022/03/19 08:49:39;;;;;;;34.95;15.35;;;8.80;99.00;;;;;;5040645;28;20026;-81
2022/03/19 08:52:05;;;;;;;32.80;13.82;;;8.90;98.80;;;;;;5037886;28;20473;-80
2022/03/19 08:54:30;;;;;;;31.25;14.27;;;8.90;98.20;;;;;;5049382;28;20049;-80
2022/03/19 08:56:56;;;;;;;33.42;15.20;;;9.00;98.40;;;;;;5051618;28;20025;-79
2022/03/19 08:59:22;;;;;;;32.40;15.07;;;9.00;98.60;;;;;;5052187;28;20033;-79
2022/03/19 09:01:49;;;;;;;31.95;14.60;;;9.10;97.70;;;;;;5049578;28;20028;-81
2022/03/19 09:04:15;;;;;;;32.78;15.20;;;9.10;96.60;;;;;;5051169;28;20481;-81
2022/03/19 09:06:42;;;;;;;33.53;16.23;;;9.10;97.50;;;;;;5041630;28;20021;-81
2022/03/19 09:09:08;;;;;;;31.95;15.07;;;9.10;97.60;;;;;;5041405;28;20051;-81
2022/03/19 09:11:36;;;;;;;36.13;17.15;;;9.20;97.10;;;;;;5050560;28;20040;-82
2022/03/19 09:14:03;;;;;;;36.13;16.20;;;9.20;96.70;;;;;;5047194;28;20048;-83
2022/03/19 09:16:29;;;;;;;37.17;15.80;;;9.20;96.70;;;;;;5054049;28;20473;-84
2022/03/19 09:18:56;;;;;;;35.58;16.77;;;9.30;96.60;;;;;;5054958;28;20462;-79
2022/03/19 09:21:22;;;;;;;32.00;15.88;;;9.40;95.40;;;;;;5055013;28;20045;-80
2022/03/19 09:23:49;;;;;;;33.13;15.80;;;9.40;95.70;;;;;;5055699;28;20074;-82
2022/03/19 09:26:15;;;;;;;29.17;14.98;;;9.40;95.60;;;;;;5056481;28;20075;-83
2022/03/19 09:28:41;;;;;;;33.55;16.25;;;9.40;95.00;;;;;;5057012;28;20024;-78
2022/03/19 09:31:06;;;;;;;32.75;17.00;;;9.40;94.50;;;;;;5054772;28;20050;-82
2022/03/19 09:33:32;;;;;;;34.35;15.85;;;9.50;94.80;;;;;;5063243;28;20037;-81
2022/03/19 09:36:01;;;;;;;37.53;16.23;;;9.50;95.00;;;;;;5054570;28;20017;-81
2022/03/19 09:38:28;;;;;;;33.05;15.93;;;9.50;94.60;;;;;;5055817;28;20027;-81
2022/03/19 09:40:55;;;;;;;36.78;17.05;;;9.60;94.80;;;;;;5054982;28;20096;-81
2022/03/19 09:43:25;;;;;;;38.60;16.83;;;9.60;94.30;;;;;;5053515;28;20025;-81
2022/03/19 09:45:51;;;;;;;33.70;17.40;;;9.80;93.60;;;;;;5055889;28;20385;-81
2022/03/19 09:48:17;;;;;;;37.75;16.83;;;9.80;94.00;;;;;;5054049;28;20063;-80
2022/03/19 09:50:43;;;;;;;36.13;17.33;;;9.80;94.60;;;;;;5054083;28;20099;-81
2022/03/19 09:53:09;;;;;;;33.22;17.27;;;9.80;94.70;;;;;;5054041;28;20104;-80
2022/03/19 09:55:38;;;;;;;38.78;17.08;;;9.90;93.60;;;;;;5068130;28;20049;-80
2022/03/19 09:58:05;;;;;;;35.58;16.83;;;9.90;93.50;;;;;;5053737;28;20470;-85
2022/03/19 10:00:31;;;;;;;37.45;18.42;;;10.00;93.90;;;;;;5072252;28;20120;-79
2022/03/19 10:03:01;;;;;;;35.63;17.30;;;10.10;93.70;;;;;;5057279;28;20102;-79
2022/03/19 10:08:59;;;;;;;39.05;18.70;;;10.20;92.70;;;;;;5055907;28;20319;-80
2022/03/19 10:11:16;;;;;;;36.40;18.27;;;10.30;92.90;;;;;;5051713;28;20120;-81
2022/03/19 10:13:47;;;;;;;38.80;18.85;;;10.40;92.10;;;;;;5053585;28;20029;-81
2022/03/19 10:16:24;;;;;;;40.55;19.30;;;10.40;92.40;;;;;;5050039;28;20028;-84
2022/03/19 10:19:01;;;;;;;35.50;18.40;;;10.50;92.00;;;;;;5045498;28;20061;-80
2022/03/19 10:21:29;;;;;;;39.25;18.60;;;10.50;91.80;;;;;;5048588;28;20029;-81
2022/03/19 10:23:59;;;;;;;44.60;19.67;;;10.50;92.10;;;;;;5055303;28;20020;-84
2022/03/19 10:26:30;;;;;;;41.83;20.45;;;10.60;91.00;;;;;;5054544;28;20021;-83
2022/03/19 10:29:03;;;;;;;39.13;19.88;;;10.70;92.20;;;;;;5052998;28;20021;-84
2022/03/19 10:31:39;;;;;;;43.13;20.75;;;10.80;89.80;;;;;;5049181;28;20029;-84
2022/03/19 10:34:07;;;;;;;38.30;19.10;;;10.80;90.80;;;;;;5053345;28;20400;-83
2022/03/19 10:36:38;;;;;;;43.33;21.17;;;10.80;91.30;;;;;;5053750;28;20021;-85
2022/03/19 10:39:18;;;;;;;42.53;19.40;;;10.90;91.10;;;;;;5053603;28;20244;-89
2022/03/19 10:41:44;;;;;;;37.80;20.52;;;11.00;90.70;;;;;;5054303;28;20025;-87
2022/03/19 10:44:27;;;;;;;39.97;20.05;;;11.10;91.30;;;;;;5050656;28;20047;-84
2022/03/19 10:46:58;;;;;;;40.15;20.48;;;11.10;90.20;;;;;;5051015;28;20112;-84
2022/03/19 10:49:26;;;;;;;39.70;19.42;;;11.20;90.90;;;;;;5050400;28;20025;-84
2022/03/19 10:51:55;;;;;;;45.95;21.90;;;11.30;90.80;;;;;;5052040;28;20457;-82
2022/03/19 10:54:22;;;;;;;48.60;21.38;;;11.30;90.50;;;;;;5052238;28;20124;-85
2022/03/19 10:56:49;;;;;;;45.38;20.30;;;11.30;85.50;;;;;;5052268;28;20095;-84
2022/03/19 10:59:15;;;;;;;37.47;19.50;;;11.40;88.20;;;;;;5051429;28;20079;-80
2022/03/19 11:01:42;;;;;;;44.50;20.20;;;11.50;87.50;;;;;;5064052;28;20562;-82
2022/03/19 11:04:09;;;;;;;37.03;19.00;;;11.50;81.60;;;;;;5053640;28;20028;-83
2022/03/19 11:06:37;;;;;;;36.97;18.95;;;11.50;81.30;;;;;;5051378;28;20024;-82
2022/03/19 11:09:10;;;;;;;45.20;19.75;;;11.50;79.20;;;;;;5049336;28;20106;-83
2022/03/19 11:12:00;;;;;;;41.70;19.02;;;11.50;82.30;;;;;;5053343;28;20049;-82
2022/03/19 11:14:30;;;;;;;34.33;17.23;;;11.60;82.00;;;;;;5052686;28;20063;-82
2022/03/19 11:17:23;;;;;;;29.83;16.02;;;11.60;78.40;;;;;;5051114;28;20031;-81
2022/03/19 11:19:49;;;;;;;28.55;15.18;;;11.70;72.80;;;;;;5070093;28;20056;-83
2022/03/19 11:22:15;;;;;;;30.02;15.13;;;11.60;70.80;;;;;;5055666;28;20020;-85
2022/03/19 11:25:07;;;;;;;29.58;14.38;;;11.60;71.10;;;;;;5076472;28;20121;-84
2022/03/19 11:27:37;;;;;;;26.42;12.88;;;11.60;73.60;;;;;;5071965;28;20052;-81
2022/03/19 11:30:05;;;;;;;28.00;13.38;;;11.70;70.20;;;;;;5073093;28;20032;-84
2022/03/19 11:32:31;;;;;;;26.95;12.13;;;11.90;70.30;;;;;;5055920;28;20032;-82
2022/03/19 11:34:59;;;;;;;27.88;12.63;;;11.90;71.40;;;;;;5054726;28;20020;-82
2022/03/19 11:38:03;;;;;;;29.13;13.63;;;12.00;73.00;;;;;;5056089;28;20107;-81
2022/03/19 11:40:38;;;;;;;21.67;10.98;;;12.10;71.80;;;;;;5076619;28;20035;-80
2022/03/19 11:43:05;;;;;;;23.77;10.77;;;12.20;70.70;;;;;;5059597;28;20461;-81
2022/03/19 11:45:38;;;;;;;23.35;10.48;;;12.30;69.20;;;;;;5071539;28;20060;-78
2022/03/19 11:48:04;;;;;;;20.00;8.52;;;12.30;66.90;;;;;;5055620;28;20131;-82
2022/03/19 11:50:31;;;;;;;19.60;8.98;;;12.40;65.50;;;;;;5057202;28;20039;-83
2022/03/19 11:52:56;;;;;;;16.10;8.07;;;12.40;65.50;;;;;;5046406;28;20031;-82
2022/03/19 11:55:31;;;;;;;19.85;8.70;;;12.40;64.50;;;;;;5051000;28;20123;-82
2022/03/19 11:58:04;;;;;;;14.82;7.47;;;12.60;66.40;;;;;;5074077;28;20032;-80
2022/03/19 12:00:33;;;;;;;15.20;7.32;;;12.60;64.50;;;;;;5070127;28;20021;-82
2022/03/19 12:03:28;;;;;;;14.63;7.20;;;12.60;61.50;;;;;;5076585;28;20036;-82
2022/03/19 12:05:54;;;;;;;13.63;6.38;;;12.70;62.50;;;;;;5040316;28;20067;-82
2022/03/19 12:08:26;;;;;;;14.40;6.82;;;12.90;63.70;;;;;;5055049;28;20079;-82
2022/03/19 12:11:12;;;;;;;13.73;6.72;;;13.00;64.00;;;;;;5082384;28;20023;-82
2022/03/19 12:13:42;;;;;;;13.30;6.47;;;13.30;63.50;;;;;;5055833;28;20025;-81
2022/03/19 12:16:09;;;;;;;15.55;6.30;;;13.40;61.40;;;;;;5076460;28;20062;-82
2022/03/19 12:18:43;;;;;;;14.65;6.10;;;13.60;60.00;;;;;;5058561;28;20059;-82
2022/03/19 12:21:08;;;;;;;13.20;6.18;;;13.70;61.60;;;;;;5055060;28;20113;-81
2022/03/19 12:23:53;;;;;;;15.45;5.55;;;13.60;60.40;;;;;;5056108;28;20412;-81
2022/03/19 12:26:24;;;;;;;13.30;5.72;;;13.50;59.50;;;;;;5055325;28;20035;-81
2022/03/19 12:28:58;;;;;;;13.88;5.82;;;13.80;62.80;;;;;;5054332;28;20221;-82
2022/03/19 12:31:41;;;;;;;10.52;4.75;;;14.10;60.50;;;;;;5071698;28;20347;-82
2022/03/19 12:34:33;;;;;;;11.80;5.93;;;14.30;54.70;;;;;;5053628;28;20024;-83
2022/03/19 12:37:04;;;;;;;14.85;5.95;;;14.50;57.10;;;;;;5042972;28;20075;-82
2022/03/19 12:39:30;;;;;;;11.45;5.50;;;14.60;54.80;;;;;;5052706;28;20025;-83
2022/03/19 12:41:57;;;;;;;12.63;6.00;;;14.30;54.90;;;;;;5072705;28;20028;-83
2022/03/19 12:44:25;;;;;;;11.35;5.55;;;14.00;56.40;;;;;;5055445;28;20023;-82
2022/03/19 12:47:04;;;;;;;11.77;5.47;;;14.10;57.60;;;;;;5075891;28;20024;-82
2022/03/19 12:49:31;;;;;;;13.25;5.20;;;14.30;57.20;;;;;;5087608;28;20024;-82
2022/03/19 12:52:04;;;;;;;9.63;4.35;;;14.60;56.20;;;;;;5088049;28;20484;-82
2022/03/19 12:54:31;;;;;;;9.45;4.13;;;14.80;53.30;;;;;;5070302;28;20035;-82